27/05/05 - 20h:16mDenunciar

McDonnell Douglas MD-500

Imagem de Luca Canossa, retirada do site Jetphotos.net.





METAR SBPB 272300Z 09005KT 9999 SCT020 BKN300 27/24 Q1013=

Comentários (0)

Fotos postadas a mais de 15 dias não podem receber comentários.